sensor_id;sensor_type;location;lat;lon;timestamp;temperature;humidity
3134;DHT22;1577;49.912;10.924;2023-05-07T00:02:21;14.40;99.90
3134;DHT22;1577;49.912;10.924;2023-05-07T00:04:46;14.30;99.90
3134;DHT22;1577;49.912;10.924;2023-05-07T00:07:12;14.30;99.90
3134;DHT22;1577;49.912;10.924;2023-05-07T00:09:38;14.30;99.90
3134;DHT22;1577;49.912;10.924;2023-05-07T00:12:03;14.30;99.90
3134;DHT22;1577;49.912;10.924;2023-05-07T00:14:29;14.30;99.90
3134;DHT22;1577;49.912;10.924;2023-05-07T00:16:55;14.30;99.90
3134;DHT22;1577;49.912;10.924;2023-05-07T00:19:20;14.20;99.90
3134;DHT22;1577;49.912;10.924;2023-05-07T00:21:46;14.20;99.90
3134;DHT22;1577;49.912;10.924;2023-05-07T00:24:12;14.10;99.90
3134;DHT22;1577;49.912;10.924;2023-05-07T00:26:37;14.20;99.90
3134;DHT22;1577;49.912;10.924;2023-05-07T00:29:03;14.20;99.90
3134;DHT22;1577;49.912;10.924;2023-05-07T00:31:28;14.10;99.90
3134;DHT22;1577;49.912;10.924;2023-05-07T00:33:54;14.10;99.90
3134;DHT22;1577;49.912;10.924;2023-05-07T00:36:20;14.20;99.90
3134;DHT22;1577;49.912;10.924;2023-05-07T00:38:45;14.20;99.90
3134;DHT22;1577;49.912;10.924;2023-05-07T00:41:11;14.30;99.90
3134;DHT22;1577;49.912;10.924;2023-05-07T00:43:36;14.30;99.90
3134;DHT22;1577;49.912;10.924;2023-05-07T00:46:03;14.40;99.90
3134;DHT22;1577;49.912;10.924;2023-05-07T00:48:28;14.40;99.90
3134;DHT22;1577;49.912;10.924;2023-05-07T00:50:54;14.40;99.90
3134;DHT22;1577;49.912;10.924;2023-05-07T00:53:20;14.40;99.90
3134;DHT22;1577;49.912;10.924;2023-05-07T00:55:46;14.50;99.90
3134;DHT22;1577;49.912;10.924;2023-05-07T00:58:12;14.50;99.90
3134;DHT22;1577;49.912;10.924;2023-05-07T01:00:37;14.50;99.90
3134;DHT22;1577;49.912;10.924;2023-05-07T01:03:03;14.50;99.90
3134;DHT22;1577;49.912;10.924;2023-05-07T01:05:30;14.50;99.90
3134;DHT22;1577;49.912;10.924;2023-05-07T01:07:57;14.60;99.90
3134;DHT22;1577;49.912;10.924;2023-05-07T01:10:23;14.60;99.90
3134;DHT22;1577;49.912;10.924;2023-05-07T01:12:50;14.60;99.90
3134;DHT22;1577;49.912;10.924;2023-05-07T01:15:16;14.70;99.90
3134;DHT22;1577;49.912;10.924;2023-05-07T01:17:42;14.70;99.90
3134;DHT22;1577;49.912;10.924;2023-05-07T01:20:09;14.70;99.90
3134;DHT22;1577;49.912;10.924;2023-05-07T01:22:37;14.60;99.90
3134;DHT22;1577;49.912;10.924;2023-05-07T01:25:04;14.60;99.90
3134;DHT22;1577;49.912;10.924;2023-05-07T01:27:30;14.50;99.90
3134;DHT22;1577;49.912;10.924;2023-05-07T01:29:56;14.40;99.90
3134;DHT22;1577;49.912;10.924;2023-05-07T01:32:29;14.40;99.90
3134;DHT22;1577;49.912;10.924;2023-05-07T01:34:55;14.30;99.90
3134;DHT22;1577;49.912;10.924;2023-05-07T01:37:23;14.30;99.90
3134;DHT22;1577;49.912;10.924;2023-05-07T01:39:50;14.30;99.90
3134;DHT22;1577;49.912;10.924;2023-05-07T01:42:15;14.30;99.90
3134;DHT22;1577;49.912;10.924;2023-05-07T01:44:41;14.40;99.90
3134;DHT22;1577;49.912;10.924;2023-05-07T01:47:07;14.30;99.90
3134;DHT22;1577;49.912;10.924;2023-05-07T01:49:34;14.40;99.90
3134;DHT22;1577;49.912;10.924;2023-05-07T01:52:00;14.40;99.90
3134;DHT22;1577;49.912;10.924;2023-05-07T01:54:26;14.30;99.90
3134;DHT22;1577;49.912;10.924;2023-05-07T01:56:59;14.40;99.90
3134;DHT22;1577;49.912;10.924;2023-05-07T01:59:25;14.40;99.90
3134;DHT22;1577;49.912;10.924;2023-05-07T02:01:51;14.40;99.90
3134;DHT22;1577;49.912;10.924;2023-05-07T02:04:17;14.40;99.90
3134;DHT22;1577;49.912;10.924;2023-05-07T02:06:43;14.40;99.90
3134;DHT22;1577;49.912;10.924;2023-05-07T02:09:08;14.40;99.90
3134;DHT22;1577;49.912;10.924;2023-05-07T02:11:34;14.40;99.90
3134;DHT22;1577;49.912;10.924;2023-05-07T02:14:00;14.40;99.90
3134;DHT22;1577;49.912;10.924;2023-05-07T02:16:25;14.50;99.90
3134;DHT22;1577;49.912;10.924;2023-05-07T02:18:51;14.50;99.90
3134;DHT22;1577;49.912;10.924;2023-05-07T02:21:17;14.50;99.90
3134;DHT22;1577;49.912;10.924;2023-05-07T02:23:42;14.50;99.90
3134;DHT22;1577;49.912;10.924;2023-05-07T02:26:08;14.50;99.90
3134;DHT22;1577;49.912;10.924;2023-05-07T02:28:34;14.50;99.90
3134;DHT22;1577;49.912;10.924;2023-05-07T02:31:03;14.50;99.90
3134;DHT22;1577;49.912;10.924;2023-05-07T02:33:29;14.50;99.90
3134;DHT22;1577;49.912;10.924;2023-05-07T02:35:54;14.50;99.90
3134;DHT22;1577;49.912;10.924;2023-05-07T02:38:20;14.50;99.90
3134;DHT22;1577;49.912;10.924;2023-05-07T02:40:46;14.50;99.90
3134;DHT22;1577;49.912;10.924;2023-05-07T02:43:11;14.50;99.90
3134;DHT22;1577;49.912;10.924;2023-05-07T02:45:37;14.40;99.90
3134;DHT22;1577;49.912;10.924;2023-05-07T02:48:03;14.40;99.90
3134;DHT22;1577;49.912;10.924;2023-05-07T02:50:29;14.40;99.90
3134;DHT22;1577;49.912;10.924;2023-05-07T02:52:55;14.30;99.90
3134;DHT22;1577;49.912;10.924;2023-05-07T02:55:21;14.30;99.90
3134;DHT22;1577;49.912;10.924;2023-05-07T02:57:46;14.20;99.90
3134;DHT22;1577;49.912;10.924;2023-05-07T03:00:17;14.20;99.90
3134;DHT22;1577;49.912;10.924;2023-05-07T03:02:44;14.10;99.90
3134;DHT22;1577;49.912;10.924;2023-05-07T03:05:10;14.10;99.90
3134;DHT22;1577;49.912;10.924;2023-05-07T03:07:36;14.00;99.90
3134;DHT22;1577;49.912;10.924;2023-05-07T03:10:03;14.00;99.90
3134;DHT22;1577;49.912;10.924;2023-05-07T03:12:29;14.00;99.90
3134;DHT22;1577;49.912;10.924;2023-05-07T03:14:55;13.90;99.90
3134;DHT22;1577;49.912;10.924;2023-05-07T03:17:21;13.90;99.90
3134;DHT22;1577;49.912;10.924;2023-05-07T03:19:46;13.80;99.90
3134;DHT22;1577;49.912;10.924;2023-05-07T03:22:12;13.80;99.90
3134;DHT22;1577;49.912;10.924;2023-05-07T03:24:38;13.70;99.90
3134;DHT22;1577;49.912;10.924;2023-05-07T03:27:03;13.70;99.90
3134;DHT22;1577;49.912;10.924;2023-05-07T03:29:29;13.60;99.90
3134;DHT22;1577;49.912;10.924;2023-05-07T03:31:55;13.60;99.90
3134;DHT22;1577;49.912;10.924;2023-05-07T03:34:20;13.60;99.90
3134;DHT22;1577;49.912;10.924;2023-05-07T03:36:48;13.50;99.90
3134;DHT22;1577;49.912;10.924;2023-05-07T03:39:14;13.50;99.90
3134;DHT22;1577;49.912;10.924;2023-05-07T03:41:40;13.40;99.90
3134;DHT22;1577;49.912;10.924;2023-05-07T03:44:05;13.40;99.90
3134;DHT22;1577;49.912;10.924;2023-05-07T03:46:31;13.30;99.90
3134;DHT22;1577;49.912;10.924;2023-05-07T03:48:58;13.30;99.90
3134;DHT22;1577;49.912;10.924;2023-05-07T03:51:24;13.30;99.90
3134;DHT22;1577;49.912;10.924;2023-05-07T03:53:50;13.30;99.90
3134;DHT22;1577;49.912;10.924;2023-05-07T03:56:18;13.30;99.90
3134;DHT22;1577;49.912;10.924;2023-05-07T03:58:44;13.20;99.90
3134;DHT22;1577;49.912;10.924;2023-05-07T04:01:09;13.20;99.90
3134;DHT22;1577;49.912;10.924;2023-05-07T04:03:35;13.20;99.90
3134;DHT22;1577;49.912;10.924;2023-05-07T04:06:00;13.10;99.90
3134;DHT22;1577;49.912;10.924;2023-05-07T04:08:26;13.10;99.90
3134;DHT22;1577;49.912;10.924;2023-05-07T04:10:55;12.90;99.90
3134;DHT22;1577;49.912;10.924;2023-05-07T04:13:21;13.00;99.90
3134;DHT22;1577;49.912;10.924;2023-05-07T04:15:47;12.90;99.90
3134;DHT22;1577;49.912;10.924;2023-05-07T04:18:14;12.90;99.90
3134;DHT22;1577;49.912;10.924;2023-05-07T04:20:40;12.70;99.90
3134;DHT22;1577;49.912;10.924;2023-05-07T04:23:05;12.60;99.90
3134;DHT22;1577;49.912;10.924;2023-05-07T04:25:32;12.70;99.90
3134;DHT22;1577;49.912;10.924;2023-05-07T04:27:57;12.70;99.90
3134;DHT22;1577;49.912;10.924;2023-05-07T04:30:24;12.80;99.90
3134;DHT22;1577;49.912;10.924;2023-05-07T04:32:49;12.80;99.90
3134;DHT22;1577;49.912;10.924;2023-05-07T04:35:15;12.90;99.90
3134;DHT22;1577;49.912;10.924;2023-05-07T04:37:40;12.90;99.90
3134;DHT22;1577;49.912;10.924;2023-05-07T04:40:06;12.90;99.90
3134;DHT22;1577;49.912;10.924;2023-05-07T04:42:32;12.90;99.90
3134;DHT22;1577;49.912;10.924;2023-05-07T04:44:58;12.90;99.90
3134;DHT22;1577;49.912;10.924;2023-05-07T04:47:24;12.90;99.90
3134;DHT22;1577;49.912;10.924;2023-05-07T04:49:49;12.90;99.90
3134;DHT22;1577;49.912;10.924;2023-05-07T04:52:15;13.00;99.90
3134;DHT22;1577;49.912;10.924;2023-05-07T04:54:41;13.10;99.90
3134;DHT22;1577;49.912;10.924;2023-05-07T04:57:06;13.20;99.90
3134;DHT22;1577;49.912;10.924;2023-05-07T04:59:32;13.40;99.90
3134;DHT22;1577;49.912;10.924;2023-05-07T05:01:58;13.50;99.90
3134;DHT22;1577;49.912;10.924;2023-05-07T05:04:23;13.60;99.90
3134;DHT22;1577;49.912;10.924;2023-05-07T05:06:49;13.70;99.90
3134;DHT22;1577;49.912;10.924;2023-05-07T05:09:15;13.70;99.90
3134;DHT22;1577;49.912;10.924;2023-05-07T05:11:41;13.80;99.90
3134;DHT22;1577;49.912;10.924;2023-05-07T05:14:07;13.90;99.90
3134;DHT22;1577;49.912;10.924;2023-05-07T05:16:32;14.10;99.90
3134;DHT22;1577;49.912;10.924;2023-05-07T05:18:58;14.30;99.90
3134;DHT22;1577;49.912;10.924;2023-05-07T05:21:23;14.50;99.90
3134;DHT22;1577;49.912;10.924;2023-05-07T05:23:49;14.60;99.90
3134;DHT22;1577;49.912;10.924;2023-05-07T05:26:15;14.80;99.90
3134;DHT22;1577;49.912;10.924;2023-05-07T05:28:41;14.90;99.90
3134;DHT22;1577;49.912;10.924;2023-05-07T05:31:06;15.10;99.90
3134;DHT22;1577;49.912;10.924;2023-05-07T05:33:32;15.30;99.90
3134;DHT22;1577;49.912;10.924;2023-05-07T05:35:57;15.50;99.90
3134;DHT22;1577;49.912;10.924;2023-05-07T05:38:23;15.70;99.90
3134;DHT22;1577;49.912;10.924;2023-05-07T05:40:48;15.80;99.90
3134;DHT22;1577;49.912;10.924;2023-05-07T05:43:14;16.00;99.90
3134;DHT22;1577;49.912;10.924;2023-05-07T05:45:40;16.10;99.90
3134;DHT22;1577;49.912;10.924;2023-05-07T05:48:05;16.10;99.90
3134;DHT22;1577;49.912;10.924;2023-05-07T05:50:31;16.10;99.90
3134;DHT22;1577;49.912;10.924;2023-05-07T05:52:57;16.20;99.90
3134;DHT22;1577;49.912;10.924;2023-05-07T05:55:23;16.20;99.90
3134;DHT22;1577;49.912;10.924;2023-05-07T05:57:49;16.30;99.90
3134;DHT22;1577;49.912;10.924;2023-05-07T06:00:16;16.40;99.90
3134;DHT22;1577;49.912;10.924;2023-05-07T06:02:41;16.40;99.90
3134;DHT22;1577;49.912;10.924;2023-05-07T06:05:08;16.60;99.90
3134;DHT22;1577;49.912;10.924;2023-05-07T06:07:34;16.70;99.90
3134;DHT22;1577;49.912;10.924;2023-05-07T06:10:00;16.90;99.90
3134;DHT22;1577;49.912;10.924;2023-05-07T06:12:26;17.10;99.90
3134;DHT22;1577;49.912;10.924;2023-05-07T06:14:52;17.30;99.90
3134;DHT22;1577;49.912;10.924;2023-05-07T06:17:17;17.40;99.90
3134;DHT22;1577;49.912;10.924;2023-05-07T06:19:43;17.40;99.90
3134;DHT22;1577;49.912;10.924;2023-05-07T06:22:09;17.40;99.90
3134;DHT22;1577;49.912;10.924;2023-05-07T06:24:35;17.30;99.90
3134;DHT22;1577;49.912;10.924;2023-05-07T06:27:00;17.20;99.90
3134;DHT22;1577;49.912;10.924;2023-05-07T06:29:26;17.20;99.90
3134;DHT22;1577;49.912;10.924;2023-05-07T06:31:52;17.20;99.90
3134;DHT22;1577;49.912;10.924;2023-05-07T06:34:18;17.20;99.90
3134;DHT22;1577;49.912;10.924;2023-05-07T06:36:44;17.20;99.90
3134;DHT22;1577;49.912;10.924;2023-05-07T06:39:09;17.20;99.90
3134;DHT22;1577;49.912;10.924;2023-05-07T06:41:35;17.20;99.90
3134;DHT22;1577;49.912;10.924;2023-05-07T06:44:02;17.30;99.90
3134;DHT22;1577;49.912;10.924;2023-05-07T06:46:28;17.30;99.90
3134;DHT22;1577;49.912;10.924;2023-05-07T06:48:54;17.40;99.90
3134;DHT22;1577;49.912;10.924;2023-05-07T06:51:19;17.40;99.90
3134;DHT22;1577;49.912;10.924;2023-05-07T06:53:45;17.50;99.90
3134;DHT22;1577;49.912;10.924;2023-05-07T06:56:10;17.60;99.90
3134;DHT22;1577;49.912;10.924;2023-05-07T06:58:37;17.60;99.90
3134;DHT22;1577;49.912;10.924;2023-05-07T07:01:02;17.60;99.90
3134;DHT22;1577;49.912;10.924;2023-05-07T07:03:28;17.70;99.90
3134;DHT22;1577;49.912;10.924;2023-05-07T07:05:54;17.70;99.90
3134;DHT22;1577;49.912;10.924;2023-05-07T07:08:21;17.70;99.90
3134;DHT22;1577;49.912;10.924;2023-05-07T07:10:47;17.80;99.90
3134;DHT22;1577;49.912;10.924;2023-05-07T07:13:13;17.80;99.90
3134;DHT22;1577;49.912;10.924;2023-05-07T07:15:39;17.90;99.90
3134;DHT22;1577;49.912;10.924;2023-05-07T07:18:05;17.90;99.90
3134;DHT22;1577;49.912;10.924;2023-05-07T07:20:31;17.90;99.90
3134;DHT22;1577;49.912;10.924;2023-05-07T07:22:57;18.10;99.90
3134;DHT22;1577;49.912;10.924;2023-05-07T07:25:22;18.20;99.90
3134;DHT22;1577;49.912;10.924;2023-05-07T07:27:49;18.30;99.90
3134;DHT22;1577;49.912;10.924;2023-05-07T07:30:15;18.40;99.90
3134;DHT22;1577;49.912;10.924;2023-05-07T07:32:40;18.50;99.90
3134;DHT22;1577;49.912;10.924;2023-05-07T07:35:06;18.80;99.90
3134;DHT22;1577;49.912;10.924;2023-05-07T07:37:32;19.00;99.90
3134;DHT22;1577;49.912;10.924;2023-05-07T07:39:58;19.10;99.90
3134;DHT22;1577;49.912;10.924;2023-05-07T07:42:23;19.10;99.90
3134;DHT22;1577;49.912;10.924;2023-05-07T07:44:49;19.30;99.90
3134;DHT22;1577;49.912;10.924;2023-05-07T07:47:15;19.50;99.90
3134;DHT22;1577;49.912;10.924;2023-05-07T07:49:41;19.70;99.90
3134;DHT22;1577;49.912;10.924;2023-05-07T07:52:06;19.70;99.90
3134;DHT22;1577;49.912;10.924;2023-05-07T07:54:32;19.80;99.90
3134;DHT22;1577;49.912;10.924;2023-05-07T07:56:58;19.80;99.90
3134;DHT22;1577;49.912;10.924;2023-05-07T07:59:23;19.90;99.90
3134;DHT22;1577;49.912;10.924;2023-05-07T08:01:49;19.90;99.90
3134;DHT22;1577;49.912;10.924;2023-05-07T08:04:17;19.90;99.90
3134;DHT22;1577;49.912;10.924;2023-05-07T08:06:42;20.00;99.90
3134;DHT22;1577;49.912;10.924;2023-05-07T08:09:08;20.10;99.90
3134;DHT22;1577;49.912;10.924;2023-05-07T08:11:34;20.20;99.90
3134;DHT22;1577;49.912;10.924;2023-05-07T08:13:59;20.40;99.90
3134;DHT22;1577;49.912;10.924;2023-05-07T08:16:25;20.50;99.90
3134;DHT22;1577;49.912;10.924;2023-05-07T08:18:51;20.50;99.90
3134;DHT22;1577;49.912;10.924;2023-05-07T08:21:17;20.50;99.90
3134;DHT22;1577;49.912;10.924;2023-05-07T08:23:42;20.60;99.90
3134;DHT22;1577;49.912;10.924;2023-05-07T08:26:08;20.60;99.90
3134;DHT22;1577;49.912;10.924;2023-05-07T08:28:34;20.80;99.90
3134;DHT22;1577;49.912;10.924;2023-05-07T08:31:00;21.20;99.90
3134;DHT22;1577;49.912;10.924;2023-05-07T08:33:26;21.50;99.90
3134;DHT22;1577;49.912;10.924;2023-05-07T08:35:52;21.70;99.90
3134;DHT22;1577;49.912;10.924;2023-05-07T08:38:17;22.10;99.70
3134;DHT22;1577;49.912;10.924;2023-05-07T08:40:43;22.40;99.50
3134;DHT22;1577;49.912;10.924;2023-05-07T08:43:12;22.60;98.80
3134;DHT22;1577;49.912;10.924;2023-05-07T08:45:40;23.00;98.60
3134;DHT22;1577;49.912;10.924;2023-05-07T08:48:09;23.20;98.10
3134;DHT22;1577;49.912;10.924;2023-05-07T08:50:39;23.40;97.70
3134;DHT22;1577;49.912;10.924;2023-05-07T08:53:05;23.70;97.10
3134;DHT22;1577;49.912;10.924;2023-05-07T08:55:31;23.60;97.00
3134;DHT22;1577;49.912;10.924;2023-05-07T08:57:56;23.60;96.90
3134;DHT22;1577;49.912;10.924;2023-05-07T09:00:22;23.70;96.70
3134;DHT22;1577;49.912;10.924;2023-05-07T09:02:48;23.80;96.90
3134;DHT22;1577;49.912;10.924;2023-05-07T09:05:13;23.90;96.50
3134;DHT22;1577;49.912;10.924;2023-05-07T09:07:39;23.90;95.80
3134;DHT22;1577;49.912;10.924;2023-05-07T09:10:06;23.80;95.40
3134;DHT22;1577;49.912;10.924;2023-05-07T09:12:32;23.80;95.60
3134;DHT22;1577;49.912;10.924;2023-05-07T09:14:59;23.80;95.50
3134;DHT22;1577;49.912;10.924;2023-05-07T09:17:24;23.80;96.10
3134;DHT22;1577;49.912;10.924;2023-05-07T09:19:50;23.80;95.50
3134;DHT22;1577;49.912;10.924;2023-05-07T09:22:16;23.70;95.30
3134;DHT22;1577;49.912;10.924;2023-05-07T09:24:52;23.70;94.90
3134;DHT22;1577;49.912;10.924;2023-05-07T09:27:18;23.70;94.90
3134;DHT22;1577;49.912;10.924;2023-05-07T09:29:47;23.70;94.50
3134;DHT22;1577;49.912;10.924;2023-05-07T09:32:14;23.50;94.90
3134;DHT22;1577;49.912;10.924;2023-05-07T09:34:41;23.30;95.10
3134;DHT22;1577;49.912;10.924;2023-05-07T09:37:07;23.50;96.60
3134;DHT22;1577;49.912;10.924;2023-05-07T09:39:46;23.70;95.20
3134;DHT22;1577;49.912;10.924;2023-05-07T09:42:12;23.90;94.60
3134;DHT22;1577;49.912;10.924;2023-05-07T09:44:41;24.00;94.50
3134;DHT22;1577;49.912;10.924;2023-05-07T09:47:07;23.90;94.40
3134;DHT22;1577;49.912;10.924;2023-05-07T09:49:35;24.10;93.60
3134;DHT22;1577;49.912;10.924;2023-05-07T09:52:03;24.30;93.80
3134;DHT22;1577;49.912;10.924;2023-05-07T09:54:32;24.60;93.70
3134;DHT22;1577;49.912;10.924;2023-05-07T09:56:59;24.50;92.80
3134;DHT22;1577;49.912;10.924;2023-05-07T09:59:28;24.60;92.20
3134;DHT22;1577;49.912;10.924;2023-05-07T10:01:57;24.40;92.50
3134;DHT22;1577;49.912;10.924;2023-05-07T10:04:24;24.30;92.50
3134;DHT22;1577;49.912;10.924;2023-05-07T10:06:50;24.20;92.80
3134;DHT22;1577;49.912;10.924;2023-05-07T10:09:16;24.00;92.60
3134;DHT22;1577;49.912;10.924;2023-05-07T10:11:42;23.80;93.20
3134;DHT22;1577;49.912;10.924;2023-05-07T10:14:09;23.70;92.50
3134;DHT22;1577;49.912;10.924;2023-05-07T10:16:36;23.50;92.60
3134;DHT22;1577;49.912;10.924;2023-05-07T10:19:03;23.50;93.30
3134;DHT22;1577;49.912;10.924;2023-05-07T10:21:30;23.50;92.80
3134;DHT22;1577;49.912;10.924;2023-05-07T10:24:26;23.70;93.10
3134;DHT22;1577;49.912;10.924;2023-05-07T10:26:52;23.70;92.70
3134;DHT22;1577;49.912;10.924;2023-05-07T10:29:32;23.90;93.20
3134;DHT22;1577;49.912;10.924;2023-05-07T10:34:50;23.90;92.50
3134;DHT22;1577;49.912;10.924;2023-05-07T10:37:18;23.70;92.30
3134;DHT22;1577;49.912;10.924;2023-05-07T10:39:45;23.80;92.20
3134;DHT22;1577;49.912;10.924;2023-05-07T10:42:11;23.80;91.60
3134;DHT22;1577;49.912;10.924;2023-05-07T10:44:37;24.00;92.10
3134;DHT22;1577;49.912;10.924;2023-05-07T10:47:11;24.10;91.30
3134;DHT22;1577;49.912;10.924;2023-05-07T10:54:43;24.40;91.30
3134;DHT22;1577;49.912;10.924;2023-05-07T10:57:33;24.40;90.70
3134;DHT22;1577;49.912;10.924;2023-05-07T11:03:19;23.80;90.70
3134;DHT22;1577;49.912;10.924;2023-05-07T11:05:44;23.60;91.40
3134;DHT22;1577;49.912;10.924;2023-05-07T11:08:10;23.60;91.10
3134;DHT22;1577;49.912;10.924;2023-05-07T11:10:53;23.40;91.20
3134;DHT22;1577;49.912;10.924;2023-05-07T11:13:45;23.40;91.70
3134;DHT22;1577;49.912;10.924;2023-05-07T11:16:18;23.50;91.80
3134;DHT22;1577;49.912;10.924;2023-05-07T11:18:52;23.60;91.70
3134;DHT22;1577;49.912;10.924;2023-05-07T11:21:36;23.80;91.40
3134;DHT22;1577;49.912;10.924;2023-05-07T11:24:03;23.80;91.30
3134;DHT22;1577;49.912;10.924;2023-05-07T11:29:26;23.80;90.40
3134;DHT22;1577;49.912;10.924;2023-05-07T11:31:53;23.40;90.80
3134;DHT22;1577;49.912;10.924;2023-05-07T11:34:23;23.20;91.10
3134;DHT22;1577;49.912;10.924;2023-05-07T11:36:49;23.40;91.20
3134;DHT22;1577;49.912;10.924;2023-05-07T11:39:25;23.30;90.60
3134;DHT22;1577;49.912;10.924;2023-05-07T11:41:51;23.30;90.90
3134;DHT22;1577;49.912;10.924;2023-05-07T11:44:17;23.20;90.60
3134;DHT22;1577;49.912;10.924;2023-05-07T11:46:43;23.20;91.50
3134;DHT22;1577;49.912;10.924;2023-05-07T11:49:09;23.30;90.80
3134;DHT22;1577;49.912;10.924;2023-05-07T11:51:35;23.50;91.40
3134;DHT22;1577;49.912;10.924;2023-05-07T11:54:04;23.60;91.00
3134;DHT22;1577;49.912;10.924;2023-05-07T11:56:34;23.70;91.10
3134;DHT22;1577;49.912;10.924;2023-05-07T11:59:00;23.80;91.10
3134;DHT22;1577;49.912;10.924;2023-05-07T12:01:26;23.90;91.10
3134;DHT22;1577;49.912;10.924;2023-05-07T12:03:52;23.90;91.40
3134;DHT22;1577;49.912;10.924;2023-05-07T12:06:18;23.90;91.80
3134;DHT22;1577;49.912;10.924;2023-05-07T12:08:45;24.10;91.90
3134;DHT22;1577;49.912;10.924;2023-05-07T12:11:15;24.10;90.80
3134;DHT22;1577;49.912;10.924;2023-05-07T12:13:42;24.00;90.60
3134;DHT22;1577;49.912;10.924;2023-05-07T12:16:08;23.80;90.90
3134;DHT22;1577;49.912;10.924;2023-05-07T12:18:36;23.80;91.20
3134;DHT22;1577;49.912;10.924;2023-05-07T12:21:01;23.80;91.10
3134;DHT22;1577;49.912;10.924;2023-05-07T12:23:28;23.90;90.90
3134;DHT22;1577;49.912;10.924;2023-05-07T12:25:54;24.10;90.90
3134;DHT22;1577;49.912;10.924;2023-05-07T12:28:19;24.10;90.80
3134;DHT22;1577;49.912;10.924;2023-05-07T12:30:47;24.00;90.40
3134;DHT22;1577;49.912;10.924;2023-05-07T12:33:34;24.00;90.40
3134;DHT22;1577;49.912;10.924;2023-05-07T12:36:03;23.90;90.40
3134;DHT22;1577;49.912;10.924;2023-05-07T12:38:37;23.80;90.80
3134;DHT22;1577;49.912;10.924;2023-05-07T12:41:04;23.70;90.10
3134;DHT22;1577;49.912;10.924;2023-05-07T12:43:30;23.60;90.60
3134;DHT22;1577;49.912;10.924;2023-05-07T12:45:57;23.40;90.60
3134;DHT22;1577;49.912;10.924;2023-05-07T12:48:25;23.20;90.80
3134;DHT22;1577;49.912;10.924;2023-05-07T12:50:56;23.20;91.10
3134;DHT22;1577;49.912;10.924;2023-05-07T12:53:24;23.20;91.20
3134;DHT22;1577;49.912;10.924;2023-05-07T12:55:52;23.10;90.90
3134;DHT22;1577;49.912;10.924;2023-05-07T12:58:24;23.10;91.10
3134;DHT22;1577;49.912;10.924;2023-05-07T13:00:51;23.00;91.00
3134;DHT22;1577;49.912;10.924;2023-05-07T13:03:30;23.00;91.10
3134;DHT22;1577;49.912;10.924;2023-05-07T13:06:01;23.10;90.80
3134;DHT22;1577;49.912;10.924;2023-05-07T13:08:32;23.20;91.20
3134;DHT22;1577;49.912;10.924;2023-05-07T13:10:59;23.30;90.80
3134;DHT22;1577;49.912;10.924;2023-05-07T13:13:29;23.30;90.90
3134;DHT22;1577;49.912;10.924;2023-05-07T13:15:54;23.40;90.90
3134;DHT22;1577;49.912;10.924;2023-05-07T13:18:20;23.60;91.00
3134;DHT22;1577;49.912;10.924;2023-05-07T13:20:46;23.70;90.70
3134;DHT22;1577;49.912;10.924;2023-05-07T13:23:11;23.60;90.30
3134;DHT22;1577;49.912;10.924;2023-05-07T13:25:37;23.60;90.30
3134;DHT22;1577;49.912;10.924;2023-05-07T13:28:02;23.60;90.20
3134;DHT22;1577;49.912;10.924;2023-05-07T13:30:29;23.60;90.50
3134;DHT22;1577;49.912;10.924;2023-05-07T13:32:58;23.60;90.20
3134;DHT22;1577;49.912;10.924;2023-05-07T13:35:23;23.60;90.30
3134;DHT22;1577;49.912;10.924;2023-05-07T13:37:49;23.60;90.10
3134;DHT22;1577;49.912;10.924;2023-05-07T13:40:18;23.60;90.20
3134;DHT22;1577;49.912;10.924;2023-05-07T13:42:47;23.70;90.10
3134;DHT22;1577;49.912;10.924;2023-05-07T13:45:13;23.80;90.10
3134;DHT22;1577;49.912;10.924;2023-05-07T13:47:40;23.80;90.20
3134;DHT22;1577;49.912;10.924;2023-05-07T13:50:07;23.80;89.40
3134;DHT22;1577;49.912;10.924;2023-05-07T13:52:33;23.80;89.70
3134;DHT22;1577;49.912;10.924;2023-05-07T13:54:58;23.90;89.00
3134;DHT22;1577;49.912;10.924;2023-05-07T13:57:24;23.80;88.50
3134;DHT22;1577;49.912;10.924;2023-05-07T13:59:50;23.60;87.50
3134;DHT22;1577;49.912;10.924;2023-05-07T14:02:15;23.50;87.20
3134;DHT22;1577;49.912;10.924;2023-05-07T14:04:41;23.30;88.00
3134;DHT22;1577;49.912;10.924;2023-05-07T14:07:07;23.30;88.20
3134;DHT22;1577;49.912;10.924;2023-05-07T14:09:32;23.20;88.50
3134;DHT22;1577;49.912;10.924;2023-05-07T14:11:59;23.20;87.60
3134;DHT22;1577;49.912;10.924;2023-05-07T14:14:24;23.20;86.90
3134;DHT22;1577;49.912;10.924;2023-05-07T14:16:50;23.20;87.50
3134;DHT22;1577;49.912;10.924;2023-05-07T14:19:16;23.10;86.20
3134;DHT22;1577;49.912;10.924;2023-05-07T14:21:41;23.00;86.80
3134;DHT22;1577;49.912;10.924;2023-05-07T14:24:10;23.00;88.60
3134;DHT22;1577;49.912;10.924;2023-05-07T14:26:36;23.00;89.70
3134;DHT22;1577;49.912;10.924;2023-05-07T14:29:02;23.00;90.20
3134;DHT22;1577;49.912;10.924;2023-05-07T14:31:28;22.90;89.20
3134;DHT22;1577;49.912;10.924;2023-05-07T14:33:54;22.80;89.30
3134;DHT22;1577;49.912;10.924;2023-05-07T14:36:19;22.70;89.20
3134;DHT22;1577;49.912;10.924;2023-05-07T14:38:47;22.70;89.00
3134;DHT22;1577;49.912;10.924;2023-05-07T14:41:12;22.60;88.70
3134;DHT22;1577;49.912;10.924;2023-05-07T14:43:38;22.70;89.40
3134;DHT22;1577;49.912;10.924;2023-05-07T14:46:04;22.70;88.60
3134;DHT22;1577;49.912;10.924;2023-05-07T14:48:29;22.70;87.70
3134;DHT22;1577;49.912;10.924;2023-05-07T14:50:55;22.60;87.30
3134;DHT22;1577;49.912;10.924;2023-05-07T14:53:21;22.50;87.90
3134;DHT22;1577;49.912;10.924;2023-05-07T14:55:48;22.40;88.20
3134;DHT22;1577;49.912;10.924;2023-05-07T14:58:14;22.50;89.30
3134;DHT22;1577;49.912;10.924;2023-05-07T15:00:39;22.40;89.00
3134;DHT22;1577;49.912;10.924;2023-05-07T15:03:09;22.40;88.60
3134;DHT22;1577;49.912;10.924;2023-05-07T15:05:36;22.30;89.30
3134;DHT22;1577;49.912;10.924;2023-05-07T15:08:02;22.40;89.90
3134;DHT22;1577;49.912;10.924;2023-05-07T15:10:28;22.40;87.50
3134;DHT22;1577;49.912;10.924;2023-05-07T15:12:53;22.40;88.30
3134;DHT22;1577;49.912;10.924;2023-05-07T15:15:22;22.40;87.70
3134;DHT22;1577;49.912;10.924;2023-05-07T15:17:48;22.50;88.00
3134;DHT22;1577;49.912;10.924;2023-05-07T15:20:13;22.60;86.20
3134;DHT22;1577;49.912;10.924;2023-05-07T15:22:39;22.60;85.60
3134;DHT22;1577;49.912;10.924;2023-05-07T15:25:07;22.50;83.90
3134;DHT22;1577;49.912;10.924;2023-05-07T15:27:32;22.60;85.60
3134;DHT22;1577;49.912;10.924;2023-05-07T15:29:58;22.70;85.30
3134;DHT22;1577;49.912;10.924;2023-05-07T15:32:23;22.60;85.30
3134;DHT22;1577;49.912;10.924;2023-05-07T15:34:49;22.70;86.30
3134;DHT22;1577;49.912;10.924;2023-05-07T15:37:15;22.70;85.60
3134;DHT22;1577;49.912;10.924;2023-05-07T15:39:40;22.60;85.50
3134;DHT22;1577;49.912;10.924;2023-05-07T15:42:06;22.60;86.20
3134;DHT22;1577;49.912;10.924;2023-05-07T15:44:31;22.60;85.40
3134;DHT22;1577;49.912;10.924;2023-05-07T15:46:59;22.60;86.80
3134;DHT22;1577;49.912;10.924;2023-05-07T15:49:25;22.60;87.70
3134;DHT22;1577;49.912;10.924;2023-05-07T15:51:50;22.60;88.50
3134;DHT22;1577;49.912;10.924;2023-05-07T15:54:17;22.50;87.70
3134;DHT22;1577;49.912;10.924;2023-05-07T15:56:48;22.50;87.90